Terminal Aerodrome Forecast
Issued by NWS Cleveland, OH

Home | Current Version | Previous Version | Text Only | Print | Product List | Glossary On
Versions: 1 2 3 4 5 6 7 8 9 10 11 12 13 14 15
552
FTUS41 KCLE 131959 AAB
TAFTOL
TAF AMD
KTOL 131959Z 1320/1418 28011KT P6SM BKN035
      TEMPO 1320/1323 3SM -SHSN BKN025
     FM140000 29008KT P6SM BKN035
     FM140800 VRB03KT P6SM SCT035=

USA.gov is the U.S. government's official web portal to all federal, state and local government web resources and services.